sensor_id;sensor_type;location;lat;lon;timestamp;P1;P2;P0
59546;PMS5003;45368;55.002;-1.592;2023-02-15T00:01:46;79;72;
59546;PMS5003;45368;55.002;-1.592;2023-02-15T00:04:15;78;69;
59546;PMS5003;45368;55.002;-1.592;2023-02-15T00:06:43;80;72;
59546;PMS5003;45368;55.002;-1.592;2023-02-15T00:09:11;73;63;
59546;PMS5003;45368;55.002;-1.592;2023-02-15T00:11:39;72;65;
59546;PMS5003;45368;55.002;-1.592;2023-02-15T00:14:08;71;64;
59546;PMS5003;45368;55.002;-1.592;2023-02-15T00:16:36;82;73;
59546;PMS5003;45368;55.002;-1.592;2023-02-15T00:19:05;72;66;
59546;PMS5003;45368;55.002;-1.592;2023-02-15T00:21:34;80;70;
59546;PMS5003;45368;55.002;-1.592;2023-02-15T00:24:03;76;65;
59546;PMS5003;45368;55.002;-1.592;2023-02-15T00:26:32;75;64;
59546;PMS5003;45368;55.002;-1.592;2023-02-15T00:29:01;71;61;
59546;PMS5003;45368;55.002;-1.592;2023-02-15T00:31:29;77;63;
59546;PMS5003;45368;55.002;-1.592;2023-02-15T00:34:00;67;62;
59546;PMS5003;45368;55.002;-1.592;2023-02-15T00:36:28;67;58;
59546;PMS5003;45368;55.002;-1.592;2023-02-15T00:38:56;66;58;
59546;PMS5003;45368;55.002;-1.592;2023-02-15T00:41:23;62;59;
59546;PMS5003;45368;55.002;-1.592;2023-02-15T00:43:51;61;49;
59546;PMS5003;45368;55.002;-1.592;2023-02-15T00:46:18;70;60;
59546;PMS5003;45368;55.002;-1.592;2023-02-15T00:48:45;64;58;
59546;PMS5003;45368;55.002;-1.592;2023-02-15T00:51:12;62;61;
59546;PMS5003;45368;55.002;-1.592;2023-02-15T00:53:39;76;66;
59546;PMS5003;45368;55.002;-1.592;2023-02-15T00:56:06;69;60;
59546;PMS5003;45368;55.002;-1.592;2023-02-15T00:58:33;73;64;
59546;PMS5003;45368;55.002;-1.592;2023-02-15T01:01:02;64;59;
59546;PMS5003;45368;55.002;-1.592;2023-02-15T01:03:31;64;59;
59546;PMS5003;45368;55.002;-1.592;2023-02-15T01:05:58;73;63;
59546;PMS5003;45368;55.002;-1.592;2023-02-15T01:08:25;65;58;
59546;PMS5003;45368;55.002;-1.592;2023-02-15T01:10:53;71;64;
59546;PMS5003;45368;55.002;-1.592;2023-02-15T01:13:20;66;63;
59546;PMS5003;45368;55.002;-1.592;2023-02-15T01:15:52;66;64;
59546;PMS5003;45368;55.002;-1.592;2023-02-15T01:18:20;59;58;
59546;PMS5003;45368;55.002;-1.592;2023-02-15T01:20:47;67;62;
59546;PMS5003;45368;55.002;-1.592;2023-02-15T01:23:15;64;59;
59546;PMS5003;45368;55.002;-1.592;2023-02-15T01:25:42;66;60;
59546;PMS5003;45368;55.002;-1.592;2023-02-15T01:28:09;63;59;
59546;PMS5003;45368;55.002;-1.592;2023-02-15T01:30:43;69;60;
59546;PMS5003;45368;55.002;-1.592;2023-02-15T01:33:10;68;63;
59546;PMS5003;45368;55.002;-1.592;2023-02-15T01:35:38;74;65;
59546;PMS5003;45368;55.002;-1.592;2023-02-15T01:38:05;62;57;
59546;PMS5003;45368;55.002;-1.592;2023-02-15T01:40:32;64;63;
59546;PMS5003;45368;55.002;-1.592;2023-02-15T01:42:59;66;61;
59546;PMS5003;45368;55.002;-1.592;2023-02-15T01:45:27;67;55;
59546;PMS5003;45368;55.002;-1.592;2023-02-15T01:47:56;64;60;
59546;PMS5003;45368;55.002;-1.592;2023-02-15T01:50:29;59;49;
59546;PMS5003;45368;55.002;-1.592;2023-02-15T01:53:01;57;52;
59546;PMS5003;45368;55.002;-1.592;2023-02-15T01:55:32;61;55;
59546;PMS5003;45368;55.002;-1.592;2023-02-15T01:58:05;61;53;
59546;PMS5003;45368;55.002;-1.592;2023-02-15T02:00:33;57;50;
59546;PMS5003;45368;55.002;-1.592;2023-02-15T02:03:01;62;55;
59546;PMS5003;45368;55.002;-1.592;2023-02-15T02:05:29;62;56;
59546;PMS5003;45368;55.002;-1.592;2023-02-15T02:07:58;66;58;
59546;PMS5003;45368;55.002;-1.592;2023-02-15T02:10:28;59;50;
59546;PMS5003;45368;55.002;-1.592;2023-02-15T02:12:56;63;60;
59546;PMS5003;45368;55.002;-1.592;2023-02-15T02:15:28;55;51;
59546;PMS5003;45368;55.002;-1.592;2023-02-15T02:18:08;66;57;
59546;PMS5003;45368;55.002;-1.592;2023-02-15T02:20:51;61;58;
59546;PMS5003;45368;55.002;-1.592;2023-02-15T02:24:13;59;57;
59546;PMS5003;45368;55.002;-1.592;2023-02-15T02:27:09;65;60;
59546;PMS5003;45368;55.002;-1.592;2023-02-15T02:29:54;65;60;
59546;PMS5003;45368;55.002;-1.592;2023-02-15T02:33:03;64;57;
59546;PMS5003;45368;55.002;-1.592;2023-02-15T02:35:41;66;59;
59546;PMS5003;45368;55.002;-1.592;2023-02-15T02:38:18;63;58;
59546;PMS5003;45368;55.002;-1.592;2023-02-15T02:40:55;60;58;
59546;PMS5003;45368;55.002;-1.592;2023-02-15T02:43:32;62;54;
59546;PMS5003;45368;55.002;-1.592;2023-02-15T02:46:07;57;50;
59546;PMS5003;45368;55.002;-1.592;2023-02-15T02:48:40;51;50;
59546;PMS5003;45368;55.002;-1.592;2023-02-15T02:51:08;58;52;
59546;PMS5003;45368;55.002;-1.592;2023-02-15T02:53:35;58;52;
59546;PMS5003;45368;55.002;-1.592;2023-02-15T02:56:04;59;55;
59546;PMS5003;45368;55.002;-1.592;2023-02-15T02:58:36;65;54;
59546;PMS5003;45368;55.002;-1.592;2023-02-15T03:01:09;61;54;
59546;PMS5003;45368;55.002;-1.592;2023-02-15T03:03:42;57;50;
59546;PMS5003;45368;55.002;-1.592;2023-02-15T03:06:14;54;53;
59546;PMS5003;45368;55.002;-1.592;2023-02-15T03:08:46;64;56;
59546;PMS5003;45368;55.002;-1.592;2023-02-15T03:11:16;49;45;
59546;PMS5003;45368;55.002;-1.592;2023-02-15T03:13:43;62;55;
59546;PMS5003;45368;55.002;-1.592;2023-02-15T03:16:15;59;55;
59546;PMS5003;45368;55.002;-1.592;2023-02-15T03:18:45;54;51;
59546;PMS5003;45368;55.002;-1.592;2023-02-15T03:21:15;57;51;
59546;PMS5003;45368;55.002;-1.592;2023-02-15T03:23:43;61;55;
59546;PMS5003;45368;55.002;-1.592;2023-02-15T03:26:10;62;54;
59546;PMS5003;45368;55.002;-1.592;2023-02-15T03:28:39;57;53;
59546;PMS5003;45368;55.002;-1.592;2023-02-15T03:31:10;60;54;
59546;PMS5003;45368;55.002;-1.592;2023-02-15T03:33:40;53;50;
59546;PMS5003;45368;55.002;-1.592;2023-02-15T03:36:13;52;47;
59546;PMS5003;45368;55.002;-1.592;2023-02-15T03:38:48;49;45;
59546;PMS5003;45368;55.002;-1.592;2023-02-15T03:41:19;59;53;
59546;PMS5003;45368;55.002;-1.592;2023-02-15T03:43:49;54;48;
59546;PMS5003;45368;55.002;-1.592;2023-02-15T03:46:21;56;50;
59546;PMS5003;45368;55.002;-1.592;2023-02-15T03:48:56;47;46;
59546;PMS5003;45368;55.002;-1.592;2023-02-15T03:51:28;48;43;
59546;PMS5003;45368;55.002;-1.592;2023-02-15T03:54:00;43;41;
59546;PMS5003;45368;55.002;-1.592;2023-02-15T03:56:30;52;47;
59546;PMS5003;45368;55.002;-1.592;2023-02-15T03:58:57;46;44;
59546;PMS5003;45368;55.002;-1.592;2023-02-15T04:01:26;48;41;
59546;PMS5003;45368;55.002;-1.592;2023-02-15T04:04:03;41;39;
59546;PMS5003;45368;55.002;-1.592;2023-02-15T04:06:35;51;46;
59546;PMS5003;45368;55.002;-1.592;2023-02-15T04:09:03;54;49;
59546;PMS5003;45368;55.002;-1.592;2023-02-15T04:11:30;46;40;
59546;PMS5003;45368;55.002;-1.592;2023-02-15T04:13:57;45;43;
59546;PMS5003;45368;55.002;-1.592;2023-02-15T04:16:25;45;42;
59546;PMS5003;45368;55.002;-1.592;2023-02-15T04:18:52;45;42;
59546;PMS5003;45368;55.002;-1.592;2023-02-15T04:21:20;52;46;
59546;PMS5003;45368;55.002;-1.592;2023-02-15T04:23:48;45;40;
59546;PMS5003;45368;55.002;-1.592;2023-02-15T04:26:15;52;47;
59546;PMS5003;45368;55.002;-1.592;2023-02-15T04:28:43;48;42;
59546;PMS5003;45368;55.002;-1.592;2023-02-15T04:31:10;47;45;
59546;PMS5003;45368;55.002;-1.592;2023-02-15T04:33:43;50;48;
59546;PMS5003;45368;55.002;-1.592;2023-02-15T04:36:10;47;43;
59546;PMS5003;45368;55.002;-1.592;2023-02-15T04:38:43;43;39;
59546;PMS5003;45368;55.002;-1.592;2023-02-15T04:41:10;46;41;
59546;PMS5003;45368;55.002;-1.592;2023-02-15T04:43:38;50;47;
59546;PMS5003;45368;55.002;-1.592;2023-02-15T04:46:06;52;49;
59546;PMS5003;45368;55.002;-1.592;2023-02-15T04:48:34;54;50;
59546;PMS5003;45368;55.002;-1.592;2023-02-15T04:51:04;52;49;
59546;PMS5003;45368;55.002;-1.592;2023-02-15T04:53:31;54;53;
59546;PMS5003;45368;55.002;-1.592;2023-02-15T04:55:59;57;51;
59546;PMS5003;45368;55.002;-1.592;2023-02-15T04:58:26;51;48;
59546;PMS5003;45368;55.002;-1.592;2023-02-15T05:00:54;56;53;
59546;PMS5003;45368;55.002;-1.592;2023-02-15T05:03:22;63;56;
59546;PMS5003;45368;55.002;-1.592;2023-02-15T05:05:50;54;52;
59546;PMS5003;45368;55.002;-1.592;2023-02-15T05:08:17;55;53;
59546;PMS5003;45368;55.002;-1.592;2023-02-15T05:10:47;67;60;
59546;PMS5003;45368;55.002;-1.592;2023-02-15T05:13:15;53;51;
59546;PMS5003;45368;55.002;-1.592;2023-02-15T05:15:46;57;54;
59546;PMS5003;45368;55.002;-1.592;2023-02-15T05:18:14;59;55;
59546;PMS5003;45368;55.002;-1.592;2023-02-15T05:20:42;69;58;
59546;PMS5003;45368;55.002;-1.592;2023-02-15T05:23:09;60;55;
59546;PMS5003;45368;55.002;-1.592;2023-02-15T05:25:36;50;46;
59546;PMS5003;45368;55.002;-1.592;2023-02-15T05:28:04;55;49;
59546;PMS5003;45368;55.002;-1.592;2023-02-15T05:30:34;69;60;
59546;PMS5003;45368;55.002;-1.592;2023-02-15T05:33:01;63;56;
59546;PMS5003;45368;55.002;-1.592;2023-02-15T05:35:29;58;55;
59546;PMS5003;45368;55.002;-1.592;2023-02-15T05:37:56;66;60;
59546;PMS5003;45368;55.002;-1.592;2023-02-15T05:40:23;59;57;
59546;PMS5003;45368;55.002;-1.592;2023-02-15T05:42:50;76;64;
59546;PMS5003;45368;55.002;-1.592;2023-02-15T05:45:17;63;61;
59546;PMS5003;45368;55.002;-1.592;2023-02-15T05:47:45;67;64;
59546;PMS5003;45368;55.002;-1.592;2023-02-15T05:50:12;62;59;
59546;PMS5003;45368;55.002;-1.592;2023-02-15T05:52:40;63;56;
59546;PMS5003;45368;55.002;-1.592;2023-02-15T05:55:07;68;62;
59546;PMS5003;45368;55.002;-1.592;2023-02-15T05:57:35;68;65;
59546;PMS5003;45368;55.002;-1.592;2023-02-15T06:00:03;67;62;
59546;PMS5003;45368;55.002;-1.592;2023-02-15T06:02:33;68;61;
59546;PMS5003;45368;55.002;-1.592;2023-02-15T06:05:00;65;58;
59546;PMS5003;45368;55.002;-1.592;2023-02-15T06:07:27;67;60;
59546;PMS5003;45368;55.002;-1.592;2023-02-15T06:09:54;71;63;
59546;PMS5003;45368;55.002;-1.592;2023-02-15T06:12:21;66;60;
59546;PMS5003;45368;55.002;-1.592;2023-02-15T06:14:48;64;59;
59546;PMS5003;45368;55.002;-1.592;2023-02-15T06:17:16;67;60;
59546;PMS5003;45368;55.002;-1.592;2023-02-15T06:19:43;60;59;
59546;PMS5003;45368;55.002;-1.592;2023-02-15T06:22:10;65;60;
59546;PMS5003;45368;55.002;-1.592;2023-02-15T06:24:42;67;60;
59546;PMS5003;45368;55.002;-1.592;2023-02-15T06:27:09;63;61;
59546;PMS5003;45368;55.002;-1.592;2023-02-15T06:29:36;64;58;
59546;PMS5003;45368;55.002;-1.592;2023-02-15T06:32:04;70;64;
59546;PMS5003;45368;55.002;-1.592;2023-02-15T06:34:31;61;57;
59546;PMS5003;45368;55.002;-1.592;2023-02-15T06:36:59;58;55;
59546;PMS5003;45368;55.002;-1.592;2023-02-15T06:39:26;69;63;
59546;PMS5003;45368;55.002;-1.592;2023-02-15T06:41:53;83;72;
59546;PMS5003;45368;55.002;-1.592;2023-02-15T06:44:21;70;65;
59546;PMS5003;45368;55.002;-1.592;2023-02-15T06:46:48;66;63;
59546;PMS5003;45368;55.002;-1.592;2023-02-15T06:49:15;65;64;
59546;PMS5003;45368;55.002;-1.592;2023-02-15T06:51:43;70;66;
59546;PMS5003;45368;55.002;-1.592;2023-02-15T06:54:10;68;66;
59546;PMS5003;45368;55.002;-1.592;2023-02-15T06:56:38;73;66;
59546;PMS5003;45368;55.002;-1.592;2023-02-15T06:59:06;68;64;
59546;PMS5003;45368;55.002;-1.592;2023-02-15T07:01:33;68;64;
59546;PMS5003;45368;55.002;-1.592;2023-02-15T07:04:00;68;64;
59546;PMS5003;45368;55.002;-1.592;2023-02-15T07:06:30;61;56;
59546;PMS5003;45368;55.002;-1.592;2023-02-15T07:08:58;63;58;
59546;PMS5003;45368;55.002;-1.592;2023-02-15T07:11:25;60;55;
59546;PMS5003;45368;55.002;-1.592;2023-02-15T07:13:53;70;63;
59546;PMS5003;45368;55.002;-1.592;2023-02-15T07:16:20;66;62;
59546;PMS5003;45368;55.002;-1.592;2023-02-15T07:18:47;68;64;
59546;PMS5003;45368;55.002;-1.592;2023-02-15T07:21:14;67;61;
59546;PMS5003;45368;55.002;-1.592;2023-02-15T07:23:41;66;62;
59546;PMS5003;45368;55.002;-1.592;2023-02-15T07:26:08;66;62;
59546;PMS5003;45368;55.002;-1.592;2023-02-15T07:28:35;63;57;
59546;PMS5003;45368;55.002;-1.592;2023-02-15T07:31:03;62;61;
59546;PMS5003;45368;55.002;-1.592;2023-02-15T07:33:32;64;59;
59546;PMS5003;45368;55.002;-1.592;2023-02-15T07:36:01;63;61;
59546;PMS5003;45368;55.002;-1.592;2023-02-15T07:38:31;60;55;
59546;PMS5003;45368;55.002;-1.592;2023-02-15T07:41:00;60;58;
59546;PMS5003;45368;55.002;-1.592;2023-02-15T07:43:29;55;51;
59546;PMS5003;45368;55.002;-1.592;2023-02-15T07:45:59;61;58;
59546;PMS5003;45368;55.002;-1.592;2023-02-15T07:48:32;60;55;
59546;PMS5003;45368;55.002;-1.592;2023-02-15T07:51:01;64;59;
59546;PMS5003;45368;55.002;-1.592;2023-02-15T07:53:30;59;57;
59546;PMS5003;45368;55.002;-1.592;2023-02-15T07:55:58;61;54;
59546;PMS5003;45368;55.002;-1.592;2023-02-15T07:58:26;62;57;
59546;PMS5003;45368;55.002;-1.592;2023-02-15T08:00:55;56;52;
59546;PMS5003;45368;55.002;-1.592;2023-02-15T08:03:22;61;58;
59546;PMS5003;45368;55.002;-1.592;2023-02-15T08:05:50;59;52;
59546;PMS5003;45368;55.002;-1.592;2023-02-15T08:08:17;57;54;
59546;PMS5003;45368;55.002;-1.592;2023-02-15T08:10:45;58;53;
59546;PMS5003;45368;55.002;-1.592;2023-02-15T08:13:12;60;55;
59546;PMS5003;45368;55.002;-1.592;2023-02-15T08:15:39;57;53;
59546;PMS5003;45368;55.002;-1.592;2023-02-15T08:18:13;59;56;
59546;PMS5003;45368;55.002;-1.592;2023-02-15T08:20:41;57;53;
59546;PMS5003;45368;55.002;-1.592;2023-02-15T08:23:08;50;47;
59546;PMS5003;45368;55.002;-1.592;2023-02-15T08:25:35;62;54;
59546;PMS5003;45368;55.002;-1.592;2023-02-15T08:28:03;59;52;
59546;PMS5003;45368;55.002;-1.592;2023-02-15T08:30:31;60;53;
59546;PMS5003;45368;55.002;-1.592;2023-02-15T08:32:58;53;47;
59546;PMS5003;45368;55.002;-1.592;2023-02-15T08:35:26;62;56;
59546;PMS5003;45368;55.002;-1.592;2023-02-15T08:37:54;55;50;
59546;PMS5003;45368;55.002;-1.592;2023-02-15T08:40:21;55;51;
59546;PMS5003;45368;55.002;-1.592;2023-02-15T08:42:48;51;49;
59546;PMS5003;45368;55.002;-1.592;2023-02-15T08:45:16;53;49;
59546;PMS5003;45368;55.002;-1.592;2023-02-15T08:47:43;60;55;
59546;PMS5003;45368;55.002;-1.592;2023-02-15T08:50:10;61;57;
59546;PMS5003;45368;55.002;-1.592;2023-02-15T08:52:43;57;50;
59546;PMS5003;45368;55.002;-1.592;2023-02-15T08:55:10;58;53;
59546;PMS5003;45368;55.002;-1.592;2023-02-15T08:57:43;58;53;
59546;PMS5003;45368;55.002;-1.592;2023-02-15T09:00:11;52;50;
59546;PMS5003;45368;55.002;-1.592;2023-02-15T09:02:39;56;54;
59546;PMS5003;45368;55.002;-1.592;2023-02-15T09:05:07;48;45;
59546;PMS5003;45368;55.002;-1.592;2023-02-15T09:07:34;54;51;
59546;PMS5003;45368;55.002;-1.592;2023-02-15T09:10:00;50;46;
59546;PMS5003;45368;55.002;-1.592;2023-02-15T09:12:28;55;51;
59546;PMS5003;45368;55.002;-1.592;2023-02-15T09:14:55;57;52;
59546;PMS5003;45368;55.002;-1.592;2023-02-15T09:17:22;58;52;
59546;PMS5003;45368;55.002;-1.592;2023-02-15T09:19:50;57;53;
59546;PMS5003;45368;55.002;-1.592;2023-02-15T09:22:18;61;54;
59546;PMS5003;45368;55.002;-1.592;2023-02-15T09:24:45;67;56;
59546;PMS5003;45368;55.002;-1.592;2023-02-15T09:27:12;50;47;
59546;PMS5003;45368;55.002;-1.592;2023-02-15T09:29:40;58;55;
59546;PMS5003;45368;55.002;-1.592;2023-02-15T09:32:07;56;50;
59546;PMS5003;45368;55.002;-1.592;2023-02-15T09:34:34;59;56;
59546;PMS5003;45368;55.002;-1.592;2023-02-15T09:37:01;58;56;
59546;PMS5003;45368;55.002;-1.592;2023-02-15T09:39:28;63;57;
59546;PMS5003;45368;55.002;-1.592;2023-02-15T09:42:06;61;58;
59546;PMS5003;45368;55.002;-1.592;2023-02-15T09:44:51;60;53;
59546;PMS5003;45368;55.002;-1.592;2023-02-15T09:47:35;63;57;
59546;PMS5003;45368;55.002;-1.592;2023-02-15T09:50:25;55;52;
59546;PMS5003;45368;55.002;-1.592;2023-02-15T09:53:01;60;55;
59546;PMS5003;45368;55.002;-1.592;2023-02-15T09:55:45;64;60;
59546;PMS5003;45368;55.002;-1.592;2023-02-15T09:58:23;69;62;
59546;PMS5003;45368;55.002;-1.592;2023-02-15T10:01:01;61;59;
59546;PMS5003;45368;55.002;-1.592;2023-02-15T10:03:42;62;52;
59546;PMS5003;45368;55.002;-1.592;2023-02-15T10:06:23;64;61;
59546;PMS5003;45368;55.002;-1.592;2023-02-15T10:09:02;61;55;
59546;PMS5003;45368;55.002;-1.592;2023-02-15T10:11:40;65;61;
59546;PMS5003;45368;55.002;-1.592;2023-02-15T10:14:23;67;61;
59546;PMS5003;45368;55.002;-1.592;2023-02-15T10:17:06;67;61;
59546;PMS5003;45368;55.002;-1.592;2023-02-15T10:19:48;70;65;
59546;PMS5003;45368;55.002;-1.592;2023-02-15T10:22:29;65;61;
59546;PMS5003;45368;55.002;-1.592;2023-02-15T10:25:08;63;61;
59546;PMS5003;45368;55.002;-1.592;2023-02-15T10:27:47;65;58;
59546;PMS5003;45368;55.002;-1.592;2023-02-15T10:30:17;62;59;
59546;PMS5003;45368;55.002;-1.592;2023-02-15T10:32:53;67;61;
59546;PMS5003;45368;55.002;-1.592;2023-02-15T10:35:28;62;55;
59546;PMS5003;45368;55.002;-1.592;2023-02-15T10:38:06;57;54;
59546;PMS5003;45368;55.002;-1.592;2023-02-15T10:40:48;64;61;
59546;PMS5003;45368;55.002;-1.592;2023-02-15T10:43:31;59;55;
59546;PMS5003;45368;55.002;-1.592;2023-02-15T10:46:12;58;55;
59546;PMS5003;45368;55.002;-1.592;2023-02-15T10:49:04;58;53;
59546;PMS5003;45368;55.002;-1.592;2023-02-15T10:51:48;55;52;
59546;PMS5003;45368;55.002;-1.592;2023-02-15T10:54:27;49;47;
59546;PMS5003;45368;55.002;-1.592;2023-02-15T10:57:03;60;52;
59546;PMS5003;45368;55.002;-1.592;2023-02-15T10:59:48;60;50;
59546;PMS5003;45368;55.002;-1.592;2023-02-15T11:02:27;53;48;
59546;PMS5003;45368;55.002;-1.592;2023-02-15T11:05:16;64;54;
59546;PMS5003;45368;55.002;-1.592;2023-02-15T11:07:53;52;49;
59546;PMS5003;45368;55.002;-1.592;2023-02-15T11:10:26;49;46;
59546;PMS5003;45368;55.002;-1.592;2023-02-15T11:13:00;49;44;
59546;PMS5003;45368;55.002;-1.592;2023-02-15T11:15:32;48;47;
59546;PMS5003;45368;55.002;-1.592;2023-02-15T11:18:04;50;45;
59546;PMS5003;45368;55.002;-1.592;2023-02-15T11:20:45;47;44;
59546;PMS5003;45368;55.002;-1.592;2023-02-15T11:23:19;48;46;
59546;PMS5003;45368;55.002;-1.592;2023-02-15T11:25:52;48;43;
59546;PMS5003;45368;55.002;-1.592;2023-02-15T11:28:24;46;42;
59546;PMS5003;45368;55.002;-1.592;2023-02-15T11:30:58;50;47;
59546;PMS5003;45368;55.002;-1.592;2023-02-15T11:33:38;44;40;
59546;PMS5003;45368;55.002;-1.592;2023-02-15T11:36:12;55;49;
59546;PMS5003;45368;55.002;-1.592;2023-02-15T11:38:44;46;44;
59546;PMS5003;45368;55.002;-1.592;2023-02-15T11:41:16;46;44;
59546;PMS5003;45368;55.002;-1.592;2023-02-15T11:43:49;48;45;
59546;PMS5003;45368;55.002;-1.592;2023-02-15T11:46:22;52;47;
59546;PMS5003;45368;55.002;-1.592;2023-02-15T11:48:50;51;45;
59546;PMS5003;45368;55.002;-1.592;2023-02-15T11:51:18;46;41;
59546;PMS5003;45368;55.002;-1.592;2023-02-15T11:53:47;37;35;
59546;PMS5003;45368;55.002;-1.592;2023-02-15T11:56:15;37;34;
59546;PMS5003;45368;55.002;-1.592;2023-02-15T11:58:45;41;38;
59546;PMS5003;45368;55.002;-1.592;2023-02-15T12:01:16;35;33;
59546;PMS5003;45368;55.002;-1.592;2023-02-15T12:03:49;42;40;
59546;PMS5003;45368;55.002;-1.592;2023-02-15T12:06:21;45;42;
59546;PMS5003;45368;55.002;-1.592;2023-02-15T12:08:54;27;26;
59546;PMS5003;45368;55.002;-1.592;2023-02-15T12:11:30;26;24;
59546;PMS5003;45368;55.002;-1.592;2023-02-15T12:14:02;26;24;
59546;PMS5003;45368;55.002;-1.592;2023-02-15T12:16:32;23;20;
59546;PMS5003;45368;55.002;-1.592;2023-02-15T12:19:10;21;19;
59546;PMS5003;45368;55.002;-1.592;2023-02-15T12:21:57;19;19;
59546;PMS5003;45368;55.002;-1.592;2023-02-15T12:24:28;24;24;
59546;PMS5003;45368;55.002;-1.592;2023-02-15T12:27:00;18;17;
59546;PMS5003;45368;55.002;-1.592;2023-02-15T12:29:30;18;16;
59546;PMS5003;45368;55.002;-1.592;2023-02-15T12:32:08;19;18;
59546;PMS5003;45368;55.002;-1.592;2023-02-15T12:34:38;16;15;
59546;PMS5003;45368;55.002;-1.592;2023-02-15T12:37:09;18;17;
59546;PMS5003;45368;55.002;-1.592;2023-02-15T12:39:44;20;17;
59546;PMS5003;45368;55.002;-1.592;2023-02-15T12:42:18;20;19;
59546;PMS5003;45368;55.002;-1.592;2023-02-15T12:44:53;18;17;
59546;PMS5003;45368;55.002;-1.592;2023-02-15T12:47:23;20;19;
59546;PMS5003;45368;55.002;-1.592;2023-02-15T12:50:04;22;21;
59546;PMS5003;45368;55.002;-1.592;2023-02-15T12:52:35;20;20;
59546;PMS5003;45368;55.002;-1.592;2023-02-15T12:55:10;22;22;
59546;PMS5003;45368;55.002;-1.592;2023-02-15T12:57:45;18;18;
59546;PMS5003;45368;55.002;-1.592;2023-02-15T13:00:25;21;20;
59546;PMS5003;45368;55.002;-1.592;2023-02-15T13:02:55;19;17;
59546;PMS5003;45368;55.002;-1.592;2023-02-15T13:05:25;19;17;
59546;PMS5003;45368;55.002;-1.592;2023-02-15T13:07:57;19;18;
59546;PMS5003;45368;55.002;-1.592;2023-02-15T13:10:28;19;18;
59546;PMS5003;45368;55.002;-1.592;2023-02-15T13:12:58;13;12;
59546;PMS5003;45368;55.002;-1.592;2023-02-15T13:15:27;18;16;
59546;PMS5003;45368;55.002;-1.592;2023-02-15T13:17:59;18;17;
59546;PMS5003;45368;55.002;-1.592;2023-02-15T13:20:28;18;17;
59546;PMS5003;45368;55.002;-1.592;2023-02-15T13:22:58;15;14;
59546;PMS5003;45368;55.002;-1.592;2023-02-15T13:25:29;14;14;
59546;PMS5003;45368;55.002;-1.592;2023-02-15T13:28:00;12;12;
59546;PMS5003;45368;55.002;-1.592;2023-02-15T13:30:30;13;12;
59546;PMS5003;45368;55.002;-1.592;2023-02-15T13:33:06;11;11;
59546;PMS5003;45368;55.002;-1.592;2023-02-15T13:35:41;12;12;
59546;PMS5003;45368;55.002;-1.592;2023-02-15T13:38:16;13;12;
59546;PMS5003;45368;55.002;-1.592;2023-02-15T13:40:55;13;12;
59546;PMS5003;45368;55.002;-1.592;2023-02-15T13:43:32;15;14;
59546;PMS5003;45368;55.002;-1.592;2023-02-15T13:46:08;10;10;
59546;PMS5003;45368;55.002;-1.592;2023-02-15T13:48:46;10;10;
59546;PMS5003;45368;55.002;-1.592;2023-02-15T13:51:25;11;11;
59546;PMS5003;45368;55.002;-1.592;2023-02-15T13:54:05;13;13;
59546;PMS5003;45368;55.002;-1.592;2023-02-15T13:56:57;10;10;
59546;PMS5003;45368;55.002;-1.592;2023-02-15T13:59:40;11;10;
59546;PMS5003;45368;55.002;-1.592;2023-02-15T14:02:27;12;11;
59546;PMS5003;45368;55.002;-1.592;2023-02-15T14:05:10;10;9;
59546;PMS5003;45368;55.002;-1.592;2023-02-15T14:07:49;12;12;
59546;PMS5003;45368;55.002;-1.592;2023-02-15T14:10:31;14;13;
59546;PMS5003;45368;55.002;-1.592;2023-02-15T14:14:22;13;12;
59546;PMS5003;45368;55.002;-1.592;2023-02-15T14:16:59;16;15;
59546;PMS5003;45368;55.002;-1.592;2023-02-15T14:19:37;15;14;
59546;PMS5003;45368;55.002;-1.592;2023-02-15T14:22:11;19;17;
59546;PMS5003;45368;55.002;-1.592;2023-02-15T14:24:46;21;19;
59546;PMS5003;45368;55.002;-1.592;2023-02-15T14:27:26;23;21;
59546;PMS5003;45368;55.002;-1.592;2023-02-15T14:30:13;20;19;
59546;PMS5003;45368;55.002;-1.592;2023-02-15T14:32:48;24;21;
59546;PMS5003;45368;55.002;-1.592;2023-02-15T14:35:19;27;25;
59546;PMS5003;45368;55.002;-1.592;2023-02-15T14:37:49;24;22;
59546;PMS5003;45368;55.002;-1.592;2023-02-15T14:40:26;24;23;
59546;PMS5003;45368;55.002;-1.592;2023-02-15T14:43:02;21;20;
59546;PMS5003;45368;55.002;-1.592;2023-02-15T14:45:39;8;8;
59546;PMS5003;45368;55.002;-1.592;2023-02-15T14:48:15;9;9;
59546;PMS5003;45368;55.002;-1.592;2023-02-15T14:50:47;7;7;
59546;PMS5003;45368;55.002;-1.592;2023-02-15T14:53:24;6;6;
59546;PMS5003;45368;55.002;-1.592;2023-02-15T14:53:45;6;6;
59546;PMS5003;45368;55.002;-1.592;2023-02-15T14:56:15;7;7;
59546;PMS5003;45368;55.002;-1.592;2023-02-15T14:58:58;9;8;
59546;PMS5003;45368;55.002;-1.592;2023-02-15T15:01:35;11;10;
59546;PMS5003;45368;55.002;-1.592;2023-02-15T15:04:05;9;8;
59546;PMS5003;45368;55.002;-1.592;2023-02-15T15:06:35;11;10;
59546;PMS5003;45368;55.002;-1.592;2023-02-15T15:09:10;11;10;
59546;PMS5003;45368;55.002;-1.592;2023-02-15T15:11:42;8;7;
59546;PMS5003;45368;55.002;-1.592;2023-02-15T15:14:36;13;11;
59546;PMS5003;45368;55.002;-1.592;2023-02-15T15:17:10;10;9;
59546;PMS5003;45368;55.002;-1.592;2023-02-15T15:19:58;10;10;
59546;PMS5003;45368;55.002;-1.592;2023-02-15T15:22:27;10;10;
59546;PMS5003;45368;55.002;-1.592;2023-02-15T15:24:55;12;11;
59546;PMS5003;45368;55.002;-1.592;2023-02-15T15:27:40;11;11;
59546;PMS5003;45368;55.002;-1.592;2023-02-15T15:30:48;11;11;
59546;PMS5003;45368;55.002;-1.592;2023-02-15T15:33:23;11;10;
59546;PMS5003;45368;55.002;-1.592;2023-02-15T15:34:56;11;10;
59546;PMS5003;45368;55.002;-1.592;2023-02-15T15:38:14;13;13;
59546;PMS5003;45368;55.002;-1.592;2023-02-15T15:41:00;8;8;
59546;PMS5003;45368;55.002;-1.592;2023-02-15T15:44:54;10;10;
59546;PMS5003;45368;55.002;-1.592;2023-02-15T15:48:40;10;10;
59546;PMS5003;45368;55.002;-1.592;2023-02-15T15:51:11;10;8;
59546;PMS5003;45368;55.002;-1.592;2023-02-15T15:53:45;9;9;
59546;PMS5003;45368;55.002;-1.592;2023-02-15T15:56:15;11;10;
59546;PMS5003;45368;55.002;-1.592;2023-02-15T15:58:49;9;8;
59546;PMS5003;45368;55.002;-1.592;2023-02-15T16:01:24;9;7;
59546;PMS5003;45368;55.002;-1.592;2023-02-15T16:03:54;7;6;
59546;PMS5003;45368;55.002;-1.592;2023-02-15T16:06:26;11;11;
59546;PMS5003;45368;55.002;-1.592;2023-02-15T16:08:56;9;9;
59546;PMS5003;45368;55.002;-1.592;2023-02-15T16:11:25;9;7;
59546;PMS5003;45368;55.002;-1.592;2023-02-15T16:13:55;7;7;
59546;PMS5003;45368;55.002;-1.592;2023-02-15T16:16:23;9;8;
59546;PMS5003;45368;55.002;-1.592;2023-02-15T16:18:54;7;6;
59546;PMS5003;45368;55.002;-1.592;2023-02-15T16:21:22;7;7;
59546;PMS5003;45368;55.002;-1.592;2023-02-15T16:23:58;7;7;
59546;PMS5003;45368;55.002;-1.592;2023-02-15T16:26:43;7;7;
59546;PMS5003;45368;55.002;-1.592;2023-02-15T16:29:26;3;3;
59546;PMS5003;45368;55.002;-1.592;2023-02-15T16:31:58;2;2;
59546;PMS5003;45368;55.002;-1.592;2023-02-15T16:34:27;3;3;
59546;PMS5003;45368;55.002;-1.592;2023-02-15T16:37:11;3;3;